sensor_id;sensor_type;location;lat;lon;timestamp;pressure;altitude;pressure_sealevel;temperature;humidity
57894;BME280;43710;47.460;19.034;2023-05-03T03:58:52;100820.88;;;15.97;100.00
57894;BME280;43710;47.460;19.034;2023-05-03T04:01:55;100820.88;;;15.97;100.00
57894;BME280;43710;47.460;19.034;2023-05-03T04:04:57;100821.72;;;15.56;100.00
57894;BME280;43710;47.460;19.034;2023-05-03T04:08:00;100828.16;;;15.60;100.00
57894;BME280;43710;47.460;19.034;2023-05-03T04:11:03;100829.69;;;15.66;100.00
57894;BME280;43710;47.460;19.034;2023-05-03T04:14:07;100830.47;;;15.67;100.00
57894;BME280;43710;47.460;19.034;2023-05-03T04:17:10;100826.84;;;15.71;100.00
57894;BME280;43710;47.460;19.034;2023-05-03T04:20:12;100832.16;;;15.77;100.00
57894;BME280;43710;47.460;19.034;2023-05-03T04:23:15;100833.75;;;15.78;100.00
57894;BME280;43710;47.460;19.034;2023-05-03T04:26:17;100830.44;;;15.81;100.00
57894;BME280;43710;47.460;19.034;2023-05-03T04:29:34;100837.75;;;15.80;100.00
57894;BME280;43710;47.460;19.034;2023-05-03T04:32:36;100834.13;;;15.85;100.00
57894;BME280;43710;47.460;19.034;2023-05-03T04:35:42;100840.75;;;15.79;97.90
57894;BME280;43710;47.460;19.034;2023-05-03T04:38:46;100845.78;;;15.71;97.60
57894;BME280;43710;47.460;19.034;2023-05-03T04:41:49;100854.25;;;15.79;98.13
57894;BME280;43710;47.460;19.034;2023-05-03T04:44:51;100852.06;;;15.81;97.85
57894;BME280;43710;47.460;19.034;2023-05-03T04:47:54;100848.84;;;15.79;99.39
57894;BME280;43710;47.460;19.034;2023-05-03T04:50:56;100853.25;;;15.88;93.88
57894;BME280;43710;47.460;19.034;2023-05-03T04:53:59;100857.66;;;15.84;99.64
57894;BME280;43710;47.460;19.034;2023-05-03T04:57:02;100866.28;;;15.86;95.60
57894;BME280;43710;47.460;19.034;2023-05-03T05:00:05;100859.16;;;15.90;97.17
57894;BME280;43710;47.460;19.034;2023-05-03T05:03:13;100868.38;;;15.89;96.22
57894;BME280;43710;47.460;19.034;2023-05-03T05:06:15;100867.56;;;16.03;95.41
57894;BME280;43710;47.460;19.034;2023-05-03T05:09:23;100871.28;;;16.15;92.58
57894;BME280;43710;47.460;19.034;2023-05-03T05:12:26;100873.75;;;16.03;94.46
57894;BME280;43710;47.460;19.034;2023-05-03T05:15:28;100877.44;;;16.07;98.12
57894;BME280;43710;47.460;19.034;2023-05-03T05:18:31;100872.31;;;16.06;96.88
57894;BME280;43710;47.460;19.034;2023-05-03T05:21:34;100876.47;;;16.03;96.69
57894;BME280;43710;47.460;19.034;2023-05-03T05:24:37;100874.50;;;16.17;94.18
57894;BME280;43710;47.460;19.034;2023-05-03T05:27:40;100868.78;;;16.19;94.46
57894;BME280;43710;47.460;19.034;2023-05-03T05:30:43;100870.31;;;16.11;93.51
57894;BME280;43710;47.460;19.034;2023-05-03T05:33:45;100878.31;;;16.16;94.87
57894;BME280;43710;47.460;19.034;2023-05-03T05:36:48;100869.41;;;16.16;92.66
57894;BME280;43710;47.460;19.034;2023-05-03T05:39:52;100876.47;;;16.26;90.62
57894;BME280;43710;47.460;19.034;2023-05-03T05:42:55;100883.69;;;16.30;91.88
57894;BME280;43710;47.460;19.034;2023-05-03T05:45:59;100879.69;;;16.28;89.27
57894;BME280;43710;47.460;19.034;2023-05-03T05:49:03;100875.56;;;16.30;90.31
57894;BME280;43710;47.460;19.034;2023-05-03T05:52:05;100888.66;;;16.37;89.98
57894;BME280;43710;47.460;19.034;2023-05-03T05:55:09;100891.06;;;16.38;90.02
57894;BME280;43710;47.460;19.034;2023-05-03T05:58:15;100896.47;;;16.38;90.36
57894;BME280;43710;47.460;19.034;2023-05-03T06:01:17;100904.53;;;16.52;99.18
57894;BME280;43710;47.460;19.034;2023-05-03T06:04:20;100912.84;;;16.56;91.45
57894;BME280;43710;47.460;19.034;2023-05-03T06:07:24;100922.56;;;16.57;87.94
57894;BME280;43710;47.460;19.034;2023-05-03T06:10:27;100919.06;;;16.56;93.77
57894;BME280;43710;47.460;19.034;2023-05-03T06:13:30;100919.06;;;16.56;92.28
57894;BME280;43710;47.460;19.034;2023-05-03T06:16:35;100930.00;;;16.51;91.75
57894;BME280;43710;47.460;19.034;2023-05-03T06:19:39;100925.19;;;16.48;89.62
57894;BME280;43710;47.460;19.034;2023-05-03T06:22:43;100928.87;;;16.52;90.14
57894;BME280;43710;47.460;19.034;2023-05-03T06:25:46;100936.38;;;16.69;87.24
57894;BME280;43710;47.460;19.034;2023-05-03T06:28:49;100928.81;;;16.80;97.74
57894;BME280;43710;47.460;19.034;2023-05-03T06:31:54;100948.75;;;16.84;85.61
57894;BME280;43710;47.460;19.034;2023-05-03T06:34:57;100944.44;;;16.83;86.31
57894;BME280;43710;47.460;19.034;2023-05-03T06:38:03;100951.19;;;16.94;85.35
57894;BME280;43710;47.460;19.034;2023-05-03T06:41:05;100955.06;;;17.02;82.72
57894;BME280;43710;47.460;19.034;2023-05-03T06:44:07;100951.47;;;17.15;93.86
57894;BME280;43710;47.460;19.034;2023-05-03T06:47:10;100957.41;;;17.17;84.10
57894;BME280;43710;47.460;19.034;2023-05-03T06:50:12;100957.28;;;17.22;85.25
57894;BME280;43710;47.460;19.034;2023-05-03T06:53:16;100950.31;;;17.30;79.43
57894;BME280;43710;47.460;19.034;2023-05-03T06:56:18;100956.88;;;17.37;81.73
57894;BME280;43710;47.460;19.034;2023-05-03T06:59:21;100960.41;;;17.47;79.19
57894;BME280;43710;47.460;19.034;2023-05-03T07:02:23;100952.34;;;17.55;76.01
57894;BME280;43710;47.460;19.034;2023-05-03T07:05:28;100951.09;;;17.61;80.82
57894;BME280;43710;47.460;19.034;2023-05-03T07:08:30;100955.69;;;17.61;80.35
57894;BME280;43710;47.460;19.034;2023-05-03T07:11:33;100948.75;;;17.77;87.43
57894;BME280;43710;47.460;19.034;2023-05-03T07:14:38;100942.44;;;17.99;79.08
57894;BME280;43710;47.460;19.034;2023-05-03T07:17:42;100947.03;;;17.90;77.28
57894;BME280;43710;47.460;19.034;2023-05-03T07:20:44;100943.88;;;17.97;77.04
57894;BME280;43710;47.460;19.034;2023-05-03T07:23:47;100937.97;;;17.95;79.39
57894;BME280;43710;47.460;19.034;2023-05-03T07:26:49;100942.56;;;17.86;78.09
57894;BME280;43710;47.460;19.034;2023-05-03T07:29:52;100943.88;;;17.88;75.71
57894;BME280;43710;47.460;19.034;2023-05-03T07:32:54;100948.03;;;18.03;75.70
57894;BME280;43710;47.460;19.034;2023-05-03T07:35:56;100943.88;;;18.05;75.58
57894;BME280;43710;47.460;19.034;2023-05-03T07:38:58;100950.25;;;17.92;74.83
57894;BME280;43710;47.460;19.034;2023-05-03T07:42:01;100949.44;;;17.92;81.74
57894;BME280;43710;47.460;19.034;2023-05-03T07:45:03;100956.03;;;18.08;86.71
57894;BME280;43710;47.460;19.034;2023-05-03T07:48:07;100951.41;;;18.08;76.87
57894;BME280;43710;47.460;19.034;2023-05-03T07:51:09;100953.13;;;18.04;74.82
57894;BME280;43710;47.460;19.034;2023-05-03T07:54:12;100952.66;;;18.11;74.86
57894;BME280;43710;47.460;19.034;2023-05-03T07:57:15;100954.28;;;18.12;74.13
57894;BME280;43710;47.460;19.034;2023-05-03T08:00:17;100961.78;;;18.15;78.86
57894;BME280;43710;47.460;19.034;2023-05-03T08:03:20;100960.22;;;18.31;78.83
57894;BME280;43710;47.460;19.034;2023-05-03T08:06:23;100953.84;;;18.45;75.20
57894;BME280;43710;47.460;19.034;2023-05-03T08:09:26;100962.59;;;18.33;72.84
57894;BME280;43710;47.460;19.034;2023-05-03T08:12:29;100961.31;;;18.30;73.87
57894;BME280;43710;47.460;19.034;2023-05-03T08:15:33;100963.91;;;18.44;79.31
57894;BME280;43710;47.460;19.034;2023-05-03T08:18:37;100973.47;;;18.42;76.15
57894;BME280;43710;47.460;19.034;2023-05-03T08:21:40;100968.03;;;18.59;73.11
57894;BME280;43710;47.460;19.034;2023-05-03T08:24:44;100968.69;;;18.56;72.85
57894;BME280;43710;47.460;19.034;2023-05-03T08:27:46;100965.47;;;18.63;76.39
57894;BME280;43710;47.460;19.034;2023-05-03T08:30:48;100970.13;;;18.71;76.17
57894;BME280;43710;47.460;19.034;2023-05-03T08:33:51;100967.41;;;18.71;70.34
57894;BME280;43710;47.460;19.034;2023-05-03T08:36:53;100972.84;;;18.80;71.75
57894;BME280;43710;47.460;19.034;2023-05-03T08:39:55;100961.53;;;18.77;69.25
57894;BME280;43710;47.460;19.034;2023-05-03T08:42:58;100974.78;;;18.79;70.87
57894;BME280;43710;47.460;19.034;2023-05-03T08:46:10;100982.75;;;18.58;68.62
57894;BME280;43710;47.460;19.034;2023-05-03T08:49:12;100984.78;;;18.44;68.54
57894;BME280;43710;47.460;19.034;2023-05-03T08:52:16;100989.75;;;18.33;68.76
57894;BME280;43710;47.460;19.034;2023-05-03T08:55:19;100976.81;;;18.39;70.23
57894;BME280;43710;47.460;19.034;2023-05-03T08:58:22;100985.91;;;18.43;70.08
57894;BME280;43710;47.460;19.034;2023-05-03T09:01:25;100982.41;;;18.42;70.01
57894;BME280;43710;47.460;19.034;2023-05-03T09:04:32;100973.47;;;18.50;72.19
57894;BME280;43710;47.460;19.034;2023-05-03T09:07:35;100981.63;;;18.59;70.97
57894;BME280;43710;47.460;19.034;2023-05-03T09:10:41;100981.28;;;18.69;71.98
57894;BME280;43710;47.460;19.034;2023-05-03T09:13:43;100977.62;;;18.74;73.65
57894;BME280;43710;47.460;19.034;2023-05-03T09:16:45;100976.84;;;18.82;70.43
57894;BME280;43710;47.460;19.034;2023-05-03T09:19:51;100973.63;;;19.06;73.72
57894;BME280;43710;47.460;19.034;2023-05-03T09:22:53;100971.34;;;19.17;71.50
57894;BME280;43710;47.460;19.034;2023-05-03T09:25:58;100965.16;;;19.08;68.31
57894;BME280;43710;47.460;19.034;2023-05-03T09:29:03;100966.25;;;19.07;69.48
57894;BME280;43710;47.460;19.034;2023-05-03T09:32:05;100968.81;;;19.20;69.70
57894;BME280;43710;47.460;19.034;2023-05-03T09:35:10;100970.19;;;19.27;69.42
57894;BME280;43710;47.460;19.034;2023-05-03T09:38:25;100973.56;;;19.32;67.67
57894;BME280;43710;47.460;19.034;2023-05-03T09:41:29;100968.75;;;19.38;70.13
57894;BME280;43710;47.460;19.034;2023-05-03T09:47:50;100965.69;;;19.39;67.58
57894;BME280;43710;47.460;19.034;2023-05-03T09:50:57;100963.13;;;19.43;72.83
57894;BME280;43710;47.460;19.034;2023-05-03T09:54:00;100972.37;;;19.51;68.47
57894;BME280;43710;47.460;19.034;2023-05-03T09:57:03;100967.62;;;19.39;66.98
57894;BME280;43710;47.460;19.034;2023-05-03T10:00:06;100961.88;;;19.40;66.48
57894;BME280;43710;47.460;19.034;2023-05-03T10:03:21;100972.56;;;19.37;67.31
57894;BME280;43710;47.460;19.034;2023-05-03T10:06:38;100964.03;;;19.56;70.98
57894;BME280;43710;47.460;19.034;2023-05-03T10:09:44;100964.66;;;19.61;67.16
57894;BME280;43710;47.460;19.034;2023-05-03T10:12:47;100966.44;;;19.57;65.55
57894;BME280;43710;47.460;19.034;2023-05-03T10:16:01;100961.31;;;19.56;67.29
57894;BME280;43710;47.460;19.034;2023-05-03T10:19:36;100958.06;;;19.62;66.51
57894;BME280;43710;47.460;19.034;2023-05-03T10:32:39;100965.31;;;19.58;68.58
57894;BME280;43710;47.460;19.034;2023-05-03T10:35:52;100949.78;;;19.59;67.15
57894;BME280;43710;47.460;19.034;2023-05-03T10:38:55;100953.62;;;19.58;66.95
57894;BME280;43710;47.460;19.034;2023-05-03T10:42:01;100952.00;;;19.57;70.10
57894;BME280;43710;47.460;19.034;2023-05-03T10:45:06;100952.06;;;19.48;68.24
57894;BME280;43710;47.460;19.034;2023-05-03T10:51:31;100944.88;;;19.43;68.36
57894;BME280;43710;47.460;19.034;2023-05-03T10:54:38;100940.34;;;19.56;70.37
57894;BME280;43710;47.460;19.034;2023-05-03T10:57:41;100950.13;;;19.57;70.57
57894;BME280;43710;47.460;19.034;2023-05-03T11:00:45;100947.06;;;19.59;68.74
57894;BME280;43710;47.460;19.034;2023-05-03T11:06:56;100946.44;;;19.53;68.58
57894;BME280;43710;47.460;19.034;2023-05-03T11:10:00;100943.84;;;19.57;70.22
57894;BME280;43710;47.460;19.034;2023-05-03T11:13:02;100941.13;;;19.57;65.58
57894;BME280;43710;47.460;19.034;2023-05-03T11:16:05;100941.97;;;19.57;70.72
57894;BME280;43710;47.460;19.034;2023-05-03T11:19:08;100945.00;;;19.56;69.98
57894;BME280;43710;47.460;19.034;2023-05-03T11:22:10;100946.13;;;19.55;72.13
57894;BME280;43710;47.460;19.034;2023-05-03T11:25:14;100946.25;;;19.58;65.59
57894;BME280;43710;47.460;19.034;2023-05-03T11:28:16;100945.63;;;19.53;67.13
57894;BME280;43710;47.460;19.034;2023-05-03T11:31:19;100941.34;;;19.52;66.16
57894;BME280;43710;47.460;19.034;2023-05-03T11:34:22;100945.87;;;19.39;68.31
57894;BME280;43710;47.460;19.034;2023-05-03T11:37:25;100942.97;;;19.44;68.06
57894;BME280;43710;47.460;19.034;2023-05-03T11:40:27;100933.69;;;19.45;64.73
57894;BME280;43710;47.460;19.034;2023-05-03T11:43:30;100938.50;;;19.39;66.15
57894;BME280;43710;47.460;19.034;2023-05-03T11:46:36;100935.50;;;19.32;66.89
57894;BME280;43710;47.460;19.034;2023-05-03T11:49:40;100941.41;;;19.34;66.64
57894;BME280;43710;47.460;19.034;2023-05-03T11:52:52;100935.13;;;19.42;65.41
57894;BME280;43710;47.460;19.034;2023-05-03T11:55:54;100936.56;;;19.40;66.42
57894;BME280;43710;47.460;19.034;2023-05-03T11:58:57;100933.25;;;19.34;67.68
57894;BME280;43710;47.460;19.034;2023-05-03T12:02:01;100930.69;;;19.38;69.56
57894;BME280;43710;47.460;19.034;2023-05-03T12:05:07;100933.41;;;19.29;65.99
57894;BME280;43710;47.460;19.034;2023-05-03T12:08:10;100941.41;;;19.34;66.03
57894;BME280;43710;47.460;19.034;2023-05-03T12:11:16;100931.97;;;19.40;66.49
57894;BME280;43710;47.460;19.034;2023-05-03T12:14:20;100938.19;;;19.41;65.77
57894;BME280;43710;47.460;19.034;2023-05-03T12:17:32;100944.88;;;19.43;69.60
57894;BME280;43710;47.460;19.034;2023-05-03T12:20:39;100931.75;;;19.45;67.87
57894;BME280;43710;47.460;19.034;2023-05-03T12:23:44;100931.63;;;19.33;66.79
57894;BME280;43710;47.460;19.034;2023-05-03T12:26:48;100933.75;;;19.28;66.44
57894;BME280;43710;47.460;19.034;2023-05-03T12:29:53;100923.34;;;19.30;67.75
57894;BME280;43710;47.460;19.034;2023-05-03T12:32:59;100918.19;;;19.37;70.16
57894;BME280;43710;47.460;19.034;2023-05-03T12:36:06;100918.16;;;19.45;66.71
57894;BME280;43710;47.460;19.034;2023-05-03T12:39:10;100919.16;;;19.41;66.49
57894;BME280;43710;47.460;19.034;2023-05-03T12:42:17;100919.31;;;19.36;64.75
57894;BME280;43710;47.460;19.034;2023-05-03T12:45:25;100916.19;;;19.25;65.77
57894;BME280;43710;47.460;19.034;2023-05-03T12:48:29;100916.69;;;19.18;67.08
57894;BME280;43710;47.460;19.034;2023-05-03T12:51:34;100913.47;;;19.25;67.73
57894;BME280;43710;47.460;19.034;2023-05-03T12:54:37;100903.38;;;19.25;67.51
57894;BME280;43710;47.460;19.034;2023-05-03T12:57:43;100896.81;;;19.27;66.78
57894;BME280;43710;47.460;19.034;2023-05-03T13:00:49;100899.34;;;19.32;70.24
57894;BME280;43710;47.460;19.034;2023-05-03T13:04:11;100898.06;;;19.38;66.93
57894;BME280;43710;47.460;19.034;2023-05-03T13:07:17;100899.97;;;19.37;67.86
57894;BME280;43710;47.460;19.034;2023-05-03T13:10:29;100901.56;;;19.38;67.08
57894;BME280;43710;47.460;19.034;2023-05-03T13:13:31;100904.28;;;19.38;68.27
57894;BME280;43710;47.460;19.034;2023-05-03T13:16:34;100899.50;;;19.35;70.14
57894;BME280;43710;47.460;19.034;2023-05-03T13:19:39;100902.06;;;19.40;68.54
57894;BME280;43710;47.460;19.034;2023-05-03T13:22:42;100895.13;;;19.43;71.60
57894;BME280;43710;47.460;19.034;2023-05-03T13:25:45;100894.03;;;19.44;69.27
57894;BME280;43710;47.460;19.034;2023-05-03T13:28:48;100898.13;;;19.50;68.68
57894;BME280;43710;47.460;19.034;2023-05-03T13:31:51;100896.31;;;19.33;69.25
57894;BME280;43710;47.460;19.034;2023-05-03T13:34:53;100891.69;;;19.34;70.80
57894;BME280;43710;47.460;19.034;2023-05-03T13:37:55;100891.81;;;19.37;71.88
57894;BME280;43710;47.460;19.034;2023-05-03T13:40:58;100884.91;;;19.40;71.54
57894;BME280;43710;47.460;19.034;2023-05-03T13:44:01;100883.16;;;19.44;71.29
57894;BME280;43710;47.460;19.034;2023-05-03T13:47:03;100883.06;;;19.32;72.73
57894;BME280;43710;47.460;19.034;2023-05-03T13:50:06;100882.69;;;19.42;72.85
57894;BME280;43710;47.460;19.034;2023-05-03T13:53:08;100876.25;;;19.46;72.66
57894;BME280;43710;47.460;19.034;2023-05-03T13:56:12;100876.69;;;19.57;71.38
57894;BME280;43710;47.460;19.034;2023-05-03T13:59:14;100877.00;;;19.56;71.82
57894;BME280;43710;47.460;19.034;2023-05-03T14:02:17;100881.00;;;19.58;71.03
57894;BME280;43710;47.460;19.034;2023-05-03T14:05:19;100868.66;;;19.61;69.05
57894;BME280;43710;47.460;19.034;2023-05-03T14:08:22;100872.97;;;19.70;71.27
57894;BME280;43710;47.460;19.034;2023-05-03T14:11:24;100867.19;;;19.72;71.57
57894;BME280;43710;47.460;19.034;2023-05-03T14:14:29;100864.59;;;19.76;69.31
57894;BME280;43710;47.460;19.034;2023-05-03T14:17:31;100858.38;;;19.75;69.42
57894;BME280;43710;47.460;19.034;2023-05-03T14:20:34;100858.53;;;19.70;68.86
57894;BME280;43710;47.460;19.034;2023-05-03T14:23:37;100859.09;;;19.55;71.62
57894;BME280;43710;47.460;19.034;2023-05-03T14:26:40;100853.53;;;19.51;68.53
57894;BME280;43710;47.460;19.034;2023-05-03T14:29:43;100854.19;;;19.48;69.38
57894;BME280;43710;47.460;19.034;2023-05-03T14:32:45;100857.66;;;19.57;69.51
57894;BME280;43710;47.460;19.034;2023-05-03T14:35:48;100857.00;;;19.60;68.95
57894;BME280;43710;47.460;19.034;2023-05-03T14:38:50;100850.59;;;19.65;68.21
57894;BME280;43710;47.460;19.034;2023-05-03T14:41:53;100852.44;;;19.73;71.28
57894;BME280;43710;47.460;19.034;2023-05-03T14:44:57;100855.66;;;19.75;66.96
57894;BME280;43710;47.460;19.034;2023-05-03T14:48:00;100863.41;;;19.64;69.77
57894;BME280;43710;47.460;19.034;2023-05-03T14:51:03;100860.16;;;19.62;69.00
57894;BME280;43710;47.460;19.034;2023-05-03T14:54:05;100862.00;;;19.49;69.15
57894;BME280;43710;47.460;19.034;2023-05-03T14:57:07;100858.84;;;19.47;69.30
57894;BME280;43710;47.460;19.034;2023-05-03T15:00:10;100866.00;;;19.52;69.92
57894;BME280;43710;47.460;19.034;2023-05-03T15:03:15;100856.75;;;19.44;68.67
57894;BME280;43710;47.460;19.034;2023-05-03T15:06:23;100851.78;;;19.46;69.70
57894;BME280;43710;47.460;19.034;2023-05-03T15:09:26;100867.41;;;19.29;67.61
57894;BME280;43710;47.460;19.034;2023-05-03T15:12:30;100863.09;;;19.28;69.33
57894;BME280;43710;47.460;19.034;2023-05-03T15:15:32;100866.25;;;19.30;70.34
57894;BME280;43710;47.460;19.034;2023-05-03T15:18:35;100871.19;;;19.36;74.04
57894;BME280;43710;47.460;19.034;2023-05-03T15:21:48;100868.84;;;19.26;70.66
57894;BME280;43710;47.460;19.034;2023-05-03T15:24:51;100872.19;;;19.32;71.77
57894;BME280;43710;47.460;19.034;2023-05-03T15:27:53;100866.59;;;19.28;71.48
57894;BME280;43710;47.460;19.034;2023-05-03T15:30:55;100873.63;;;19.29;71.42
57894;BME280;43710;47.460;19.034;2023-05-03T15:33:57;100873.34;;;19.22;73.10
57894;BME280;43710;47.460;19.034;2023-05-03T15:37:03;100877.47;;;19.28;71.25
57894;BME280;43710;47.460;19.034;2023-05-03T15:40:09;100878.28;;;19.20;71.87
57894;BME280;43710;47.460;19.034;2023-05-03T15:43:11;100876.88;;;19.14;72.70
